Time,TemperatureF,DewpointF,PressureIn,WindDirection,WindDirectionDegrees,WindSpeedMPH,WindSpeedGustMPH,Humidity,HourlyPrecipIn,Conditions,Clouds,dailyrainin,SoftwareType,DateUTC
2013-06-27 00:02:00,69.8,68.9,29.47,SE,135,0.0,0.0,96,0.00,,,0.17,fowsr,2013-06-27 04:02:00,
2013-06-27 00:07:00,69.8,68.9,29.47,SE,135,0.0,0.0,96,0.00,,,0.17,fowsr,2013-06-27 04:07:00,
2013-06-27 00:12:00,69.8,68.9,29.47,SE,135,0.7,1.6,96,0.00,,,0.17,fowsr,2013-06-27 04:12:00,
2013-06-27 00:17:00,69.8,68.9,29.48,SE,135,0.0,0.7,96,0.00,,,0.17,fowsr,2013-06-27 04:17:00,
2013-06-27 00:22:00,69.8,68.9,29.48,SE,135,0.7,2.2,96,0.00,,,0.17,fowsr,2013-06-27 04:22:00,
2013-06-27 00:27:00,69.6,68.9,29.48,SE,135,0.0,0.0,97,0.00,,,0.17,fowsr,2013-06-27 04:27:00,
2013-06-27 00:32:00,69.6,68.9,29.47,SE,135,0.0,1.6,97,0.00,,,0.17,fowsr,2013-06-27 04:32:00,
2013-06-27 00:37:00,69.6,68.9,29.47,SE,135,0.0,0.7,97,0.00,,,0.17,fowsr,2013-06-27 04:37:00,
2013-06-27 00:42:00,69.4,68.7,29.48,SE,135,0.0,0.0,97,0.00,,,0.17,fowsr,2013-06-27 04:42:00,
2013-06-27 00:47:00,69.4,68.7,29.48,South,180,0.0,0.7,97,0.00,,,0.17,fowsr,2013-06-27 04:47:00,
2013-06-27 00:52:00,69.3,68.6,29.47,East,90,0.0,0.7,97,0.00,,,0.17,fowsr,2013-06-27 04:52:00,
2013-06-27 00:57:00,69.3,68.6,29.47,SE,135,0.0,0.7,97,0.00,,,0.17,fowsr,2013-06-27 04:57:00,
2013-06-27 01:02:00,69.1,68.4,29.47,SE,135,0.0,1.6,97,0.00,,,0.17,fowsr,2013-06-27 05:02:00,
2013-06-27 01:07:00,69.1,68.4,29.47,SE,135,0.0,0.0,97,0.00,,,0.17,fowsr,2013-06-27 05:07:00,
2013-06-27 01:12:00,69.1,68.4,29.47,SE,135,0.0,0.7,97,0.00,,,0.17,fowsr,2013-06-27 05:12:00,
2013-06-27 01:17:00,69.1,68.4,29.47,SE,135,0.0,0.0,97,0.00,,,0.17,fowsr,2013-06-27 05:17:00,
2013-06-27 01:22:00,69.1,68.4,29.46,SE,135,0.0,0.0,97,0.00,,,0.17,fowsr,2013-06-27 05:22:00,
2013-06-27 01:27:00,68.9,68.2,29.46,SE,135,0.0,0.0,97,0.00,,,0.17,fowsr,2013-06-27 05:27:00,
2013-06-27 01:32:00,68.9,68.2,29.45,SE,135,0.0,0.0,97,0.00,,,0.17,fowsr,2013-06-27 05:32:00,
2013-06-27 01:37:00,68.9,68.2,29.45,SE,135,0.0,0.0,97,0.00,,,0.17,fowsr,2013-06-27 05:37:00,
2013-06-27 01:42:00,68.9,68.2,29.45,SE,135,0.0,0.0,97,0.00,,,0.17,fowsr,2013-06-27 05:42:00,
2013-06-27 01:47:00,68.9,68.2,29.45,SE,135,0.0,0.0,97,0.00,,,0.17,fowsr,2013-06-27 05:47:00,
2013-06-27 01:52:00,68.9,68.2,29.45,SE,135,0.0,0.0,97,0.00,,,0.17,fowsr,2013-06-27 05:52:00,
2013-06-27 01:57:00,68.7,68.0,29.45,SE,135,0.0,0.0,97,0.00,,,0.17,fowsr,2013-06-27 05:57:00,
2013-06-27 02:02:00,68.7,68.0,29.45,SE,135,0.0,0.0,97,0.00,,,0.17,fowsr,2013-06-27 06:02:00,
2013-06-27 02:07:00,68.7,68.0,29.45,SE,135,0.0,0.0,97,0.00,,,0.17,fowsr,2013-06-27 06:07:00,
2013-06-27 02:12:00,68.7,68.0,29.45,SE,135,0.0,0.0,97,0.00,,,0.17,fowsr,2013-06-27 06:12:00,
2013-06-27 02:17:00,68.5,67.8,29.45,SE,135,0.0,0.0,97,0.00,,,0.17,fowsr,2013-06-27 06:17:00,
2013-06-27 02:22:00,68.5,67.8,29.45,SE,135,0.0,0.0,97,0.00,,,0.17,fowsr,2013-06-27 06:22:00,
2013-06-27 02:27:00,68.5,67.8,29.45,SE,135,0.0,0.0,97,0.00,,,0.17,fowsr,2013-06-27 06:27:00,
2013-06-27 02:32:00,68.5,67.8,29.45,SE,135,0.0,0.0,97,0.00,,,0.17,fowsr,2013-06-27 06:32:00,
2013-06-27 02:37:00,68.4,67.7,29.45,SE,135,0.0,0.7,97,0.00,,,0.17,fowsr,2013-06-27 06:37:00,
2013-06-27 02:42:00,68.4,67.7,29.45,SE,135,0.0,0.0,97,0.00,,,0.17,fowsr,2013-06-27 06:42:00,
2013-06-27 02:47:00,68.4,67.7,29.45,SE,135,0.0,0.0,97,0.00,,,0.17,fowsr,2013-06-27 06:47:00,
2013-06-27 02:52:00,68.4,67.7,29.45,SE,135,0.0,0.0,97,0.01,,,0.18,fowsr,2013-06-27 06:52:00,
2013-06-27 02:57:00,68.4,67.7,29.45,SE,135,0.0,0.0,97,0.01,,,0.18,fowsr,2013-06-27 06:57:00,
2013-06-27 03:02:00,68.2,67.5,29.45,SE,135,0.7,1.6,97,0.01,,,0.18,fowsr,2013-06-27 07:02:00,
2013-06-27 03:07:00,68.2,67.5,29.44,SE,135,0.7,1.6,97,0.01,,,0.18,fowsr,2013-06-27 07:07:00,
2013-06-27 03:12:00,68.2,67.5,29.44,SE,135,0.0,0.0,97,0.01,,,0.18,fowsr,2013-06-27 07:12:00,
2013-06-27 03:17:00,68.2,67.5,29.45,SE,135,0.0,0.0,97,0.01,,,0.18,fowsr,2013-06-27 07:17:00,
2013-06-27 03:22:00,68.2,67.5,29.44,SE,135,0.0,1.6,97,0.01,,,0.18,fowsr,2013-06-27 07:22:00,
2013-06-27 03:27:00,68.2,67.5,29.44,SE,135,0.0,0.0,97,0.01,,,0.18,fowsr,2013-06-27 07:27:00,
2013-06-27 03:32:00,68.2,67.5,29.44,SE,135,0.0,0.0,97,0.01,,,0.18,fowsr,2013-06-27 07:32:00,
2013-06-27 03:37:00,68.0,67.3,29.44,SE,135,0.0,0.0,97,0.01,,,0.18,fowsr,2013-06-27 07:37:00,
2013-06-27 03:42:00,68.0,67.5,29.44,SE,135,0.0,0.0,98,0.01,,,0.18,fowsr,2013-06-27 07:42:00,
2013-06-27 03:47:00,68.0,67.5,29.44,SE,135,0.0,0.7,98,0.01,,,0.18,fowsr,2013-06-27 07:47:00,
2013-06-27 03:52:00,68.0,67.5,29.44,SE,135,0.0,0.0,98,0.01,,,0.18,fowsr,2013-06-27 07:52:00,
2013-06-27 03:57:00,68.0,67.5,29.43,SE,135,0.0,0.0,98,0.00,,,0.18,fowsr,2013-06-27 07:57:00,
2013-06-27 04:02:00,68.0,67.5,29.44,SE,135,0.0,0.7,98,0.00,,,0.18,fowsr,2013-06-27 08:02:00,
2013-06-27 04:07:00,68.0,67.5,29.43,SE,135,0.0,0.7,98,0.00,,,0.18,fowsr,2013-06-27 08:07:00,
2013-06-27 04:12:00,68.0,67.5,29.43,SE,135,0.0,0.0,98,0.00,,,0.18,fowsr,2013-06-27 08:12:00,
2013-06-27 04:17:00,68.2,67.7,29.42,SE,135,0.0,0.0,98,0.00,,,0.18,fowsr,2013-06-27 08:17:00,
2013-06-27 04:22:00,68.2,67.7,29.42,SE,135,0.0,0.0,98,0.00,,,0.18,fowsr,2013-06-27 08:22:00,
2013-06-27 04:27:00,68.2,67.7,29.42,SE,135,0.0,1.6,98,0.00,,,0.18,fowsr,2013-06-27 08:27:00,
2013-06-27 04:32:00,68.2,67.7,29.42,SE,135,0.0,0.0,98,0.00,,,0.18,fowsr,2013-06-27 08:32:00,
2013-06-27 04:37:00,68.4,67.9,29.42,SE,135,0.0,0.0,98,0.00,,,0.18,fowsr,2013-06-27 08:37:00,
2013-06-27 04:42:00,68.4,67.9,29.42,SE,135,0.0,0.7,98,0.00,,,0.18,fowsr,2013-06-27 08:42:00,
2013-06-27 04:47:00,68.4,67.9,29.42,SE,135,0.0,0.0,98,0.00,,,0.18,fowsr,2013-06-27 08:47:00,
2013-06-27 04:52:00,68.4,67.9,29.42,SE,135,0.0,0.7,98,0.00,,,0.18,fowsr,2013-06-27 08:52:00,
2013-06-27 04:57:00,68.5,68.1,29.42,SE,135,0.0,0.0,98,0.00,,,0.18,fowsr,2013-06-27 08:57:00,
2013-06-27 05:02:00,68.5,68.1,29.42,SE,135,0.0,0.7,98,0.00,,,0.18,fowsr,2013-06-27 09:02:00,
2013-06-27 05:07:00,68.5,68.1,29.42,SE,135,0.0,0.0,98,0.00,,,0.18,fowsr,2013-06-27 09:07:00,
2013-06-27 05:12:00,68.5,68.1,29.41,SE,135,0.0,0.0,98,0.00,,,0.18,fowsr,2013-06-27 09:12:00,
2013-06-27 05:17:00,68.5,68.1,29.42,SE,135,0.0,0.0,98,0.00,,,0.18,fowsr,2013-06-27 09:17:00,
2013-06-27 05:22:00,68.7,68.3,29.41,East,90,0.0,0.7,98,0.00,,,0.18,fowsr,2013-06-27 09:22:00,
2013-06-27 05:27:00,68.7,68.3,29.40,East,90,0.0,0.0,98,0.00,,,0.18,fowsr,2013-06-27 09:27:00,
2013-06-27 05:32:00,68.7,68.3,29.40,East,90,0.7,1.6,98,0.00,,,0.18,fowsr,2013-06-27 09:32:00,
2013-06-27 05:37:00,68.7,68.3,29.40,East,90,0.0,0.0,98,0.00,,,0.18,fowsr,2013-06-27 09:37:00,
2013-06-27 05:42:00,69.1,68.6,29.40,East,90,0.0,0.0,98,0.00,,,0.18,fowsr,2013-06-27 09:42:00,
2013-06-27 05:47:00,69.1,68.6,29.40,East,90,0.0,1.6,98,0.00,,,0.18,fowsr,2013-06-27 09:47:00,
2013-06-27 05:52:00,69.3,69.0,29.41,East,90,0.0,0.0,99,0.00,,,0.18,fowsr,2013-06-27 09:52:00,
2013-06-27 05:57:00,69.4,69.2,29.40,SE,135,0.0,1.6,99,0.00,,,0.18,fowsr,2013-06-27 09:57:00,
2013-06-27 06:02:00,69.4,69.2,29.41,East,90,0.0,0.0,99,0.00,,,0.18,fowsr,2013-06-27 10:02:00,
2013-06-27 06:07:00,69.6,69.4,29.41,East,90,0.0,0.0,99,0.00,,,0.18,fowsr,2013-06-27 10:07:00,
2013-06-27 06:12:00,69.6,69.4,29.41,SE,135,0.0,0.7,99,0.00,,,0.18,fowsr,2013-06-27 10:12:00,
2013-06-27 06:17:00,69.6,69.4,29.41,SE,135,0.0,0.7,99,0.00,,,0.18,fowsr,2013-06-27 10:17:00,
2013-06-27 06:22:00,69.8,69.3,29.41,SE,135,0.0,0.7,98,0.00,,,0.18,fowsr,2013-06-27 10:22:00,
2013-06-27 06:27:00,69.8,69.3,29.41,SE,135,1.6,2.2,98,0.00,,,0.18,fowsr,2013-06-27 10:27:00,
2013-06-27 06:32:00,70.0,69.5,29.41,SE,135,0.0,0.7,98,0.00,,,0.18,fowsr,2013-06-27 10:32:00,
2013-06-27 06:37:00,70.2,69.7,29.41,East,90,0.0,1.6,98,0.00,,,0.18,fowsr,2013-06-27 10:37:00,
2013-06-27 06:42:00,70.2,69.7,29.41,SE,135,0.0,0.0,98,0.00,,,0.18,fowsr,2013-06-27 10:42:00,
2013-06-27 06:47:00,70.3,69.9,29.41,SE,135,0.0,0.0,98,0.00,,,0.18,fowsr,2013-06-27 10:47:00,
2013-06-27 06:52:00,70.3,69.9,29.40,SW,225,0.7,1.6,98,0.00,,,0.18,fowsr,2013-06-27 10:52:00,
2013-06-27 06:57:00,70.5,70.1,29.40,SE,135,1.6,3.1,98,0.00,,,0.18,fowsr,2013-06-27 10:57:00,
2013-06-27 07:02:00,70.7,70.2,29.41,South,180,0.0,0.7,98,0.00,,,0.18,fowsr,2013-06-27 11:02:00,
2013-06-27 07:07:00,70.7,70.2,29.40,SE,135,0.7,2.2,98,0.00,,,0.18,fowsr,2013-06-27 11:07:00,
2013-06-27 07:12:00,70.9,70.4,29.41,East,90,0.0,0.7,98,0.00,,,0.18,fowsr,2013-06-27 11:12:00,
2013-06-27 07:17:00,70.9,70.4,29.41,SE,135,0.7,1.6,98,0.00,,,0.18,fowsr,2013-06-27 11:17:00,
2013-06-27 07:22:00,71.1,70.6,29.40,SE,135,0.0,0.7,98,0.00,,,0.18,fowsr,2013-06-27 11:22:00,
2013-06-27 07:27:00,71.1,70.6,29.41,SE,135,0.7,3.1,98,0.00,,,0.18,fowsr,2013-06-27 11:27:00,
2013-06-27 07:32:00,71.2,70.8,29.41,SSE,157,0.0,1.6,98,0.00,,,0.18,fowsr,2013-06-27 11:32:00,
2013-06-27 07:37:00,71.2,70.8,29.41,NW,315,0.0,0.7,98,0.00,,,0.18,fowsr,2013-06-27 11:37:00,
2013-06-27 07:42:00,71.2,70.8,29.41,East,90,0.0,1.6,98,0.00,,,0.18,fowsr,2013-06-27 11:42:00,
2013-06-27 07:47:00,71.4,71.0,29.41,SE,135,0.7,1.6,98,0.00,,,0.18,fowsr,2013-06-27 11:47:00,
2013-06-27 07:52:00,71.6,70.9,29.41,South,180,1.6,3.8,97,0.00,,,0.18,fowsr,2013-06-27 11:52:00,
2013-06-27 07:57:00,71.6,70.9,29.40,SE,135,0.0,0.7,97,0.00,,,0.18,fowsr,2013-06-27 11:57:00,
2013-06-27 08:02:00,71.8,71.1,29.40,SE,135,0.0,0.7,97,0.00,,,0.18,fowsr,2013-06-27 12:02:00,
2013-06-27 08:07:00,72.0,71.3,29.40,SE,135,0.0,2.2,97,0.00,,,0.18,fowsr,2013-06-27 12:07:00,
2013-06-27 08:12:00,72.1,71.4,29.40,East,90,0.0,1.6,97,0.00,,,0.18,fowsr,2013-06-27 12:12:00,
2013-06-27 08:17:00,72.1,71.4,29.40,SE,135,0.0,0.7,97,0.00,,,0.18,fowsr,2013-06-27 12:17:00,
2013-06-27 08:22:00,72.3,71.6,29.40,South,180,0.0,0.7,97,0.00,,,0.18,fowsr,2013-06-27 12:22:00,
2013-06-27 08:27:00,72.5,71.8,29.40,SE,135,0.0,2.2,97,0.00,,,0.18,fowsr,2013-06-27 12:27:00,
2013-06-27 08:32:00,72.9,72.1,29.39,East,90,1.6,3.1,97,0.00,,,0.18,fowsr,2013-06-27 12:32:00,
2013-06-27 08:37:00,73.0,72.3,29.39,East,90,1.6,3.8,97,0.00,,,0.18,fowsr,2013-06-27 12:37:00,
2013-06-27 08:42:00,73.0,72.3,29.38,East,90,1.6,3.8,97,0.00,,,0.18,fowsr,2013-06-27 12:42:00,
2013-06-27 08:47:00,-999.9,-99.9,29.38,North,2970,916.0,916.0,255,0.00,,,0.18,fowsr,2013-06-27 12:47:00,
2013-06-27 08:52:00,-999.9,-99.9,29.37,North,2970,916.0,916.0,255,0.00,,,0.18,fowsr,2013-06-27 12:52:00,
2013-06-27 08:57:00,-999.9,-99.9,29.37,North,2970,916.0,916.0,255,0.00,,,0.18,fowsr,2013-06-27 12:57:00,
2013-06-27 09:02:00,-999.9,-99.9,29.39,North,2970,916.0,916.0,255,0.00,,,0.18,fowsr,2013-06-27 13:02:00,
2013-06-27 09:07:00,-999.9,-99.9,29.39,North,2970,916.0,916.0,255,0.00,,,0.18,fowsr,2013-06-27 13:07:00,
2013-06-27 09:12:00,-999.9,-99.9,29.39,North,2970,916.0,916.0,255,0.00,,,0.18,fowsr,2013-06-27 13:12:00,
2013-06-27 09:17:00,-999.9,-99.9,29.39,North,2970,916.0,916.0,255,0.00,,,0.18,fowsr,2013-06-27 13:17:00,
2013-06-27 09:22:00,-999.9,-99.9,29.41,North,2970,916.0,916.0,255,0.00,,,0.18,fowsr,2013-06-27 13:22:00,
2013-06-27 09:27:00,-999.9,-99.9,29.41,North,2970,916.0,916.0,255,0.00,,,0.18,fowsr,2013-06-27 13:27:00,
2013-06-27 09:32:00,-999.9,-99.9,29.40,North,2970,916.0,916.0,255,0.00,,,0.18,fowsr,2013-06-27 13:32:00,
2013-06-27 09:37:00,-999.9,-99.9,29.40,North,2970,916.0,916.0,255,0.00,,,0.18,fowsr,2013-06-27 13:37:00,
2013-06-27 09:42:00,-999.9,-99.9,29.39,North,2970,916.0,916.0,255,0.00,,,0.18,fowsr,2013-06-27 13:42:00,
2013-06-27 09:47:00,75.9,74.7,29.39,SE,135,0.0,0.0,95,0.00,,,0.18,fowsr,2013-06-27 13:47:00,
2013-06-27 09:52:00,75.9,74.7,29.39,SE,135,0.0,0.7,95,0.00,,,0.18,fowsr,2013-06-27 13:52:00,
2013-06-27 09:57:00,76.3,75.1,29.39,SE,135,0.0,0.7,95,0.00,,,0.18,fowsr,2013-06-27 13:57:00,
2013-06-27 10:02:00,76.8,75.6,29.39,SE,135,0.0,0.7,95,0.00,,,0.18,fowsr,2013-06-27 14:02:00,
2013-06-27 10:07:00,77.2,75.7,29.39,SE,135,0.0,0.7,94,0.00,,,0.18,fowsr,2013-06-27 14:07:00,
2013-06-27 10:12:00,77.7,76.2,29.39,SE,135,0.0,0.7,94,0.00,,,0.18,fowsr,2013-06-27 14:12:00,
2013-06-27 10:17:00,78.3,76.5,29.39,SE,135,0.7,1.6,93,0.00,,,0.18,fowsr,2013-06-27 14:17:00,
2013-06-27 10:22:00,78.8,76.8,29.39,SE,135,2.2,3.8,92,0.00,,,0.18,fowsr,2013-06-27 14:22:00,
2013-06-27 10:27:00,79.3,76.8,29.38,NW,315,0.0,0.0,90,0.00,,,0.18,fowsr,2013-06-27 14:27:00,
2013-06-27 10:32:00,79.7,77.1,29.38,East,90,0.0,0.7,90,0.00,,,0.18,fowsr,2013-06-27 14:32:00,
2013-06-27 10:37:00,79.9,77.3,29.38,SW,225,0.0,1.6,90,0.00,,,0.18,fowsr,2013-06-27 14:37:00,
2013-06-27 10:42:00,80.6,76.9,29.38,SE,135,0.0,1.6,86,0.00,,,0.18,fowsr,2013-06-27 14:42:00,
2013-06-27 10:47:00,81.0,76.7,29.38,East,90,0.0,0.7,84,0.00,,,0.18,fowsr,2013-06-27 14:47:00,
2013-06-27 10:52:00,81.1,76.9,29.39,SE,135,0.0,0.7,84,0.00,,,0.18,fowsr,2013-06-27 14:52:00,
2013-06-27 10:57:00,81.3,76.8,29.38,South,180,0.7,2.2,83,0.00,,,0.18,fowsr,2013-06-27 14:57:00,
2013-06-27 11:02:00,81.3,76.5,29.38,East,90,0.7,1.6,82,0.00,,,0.18,fowsr,2013-06-27 15:02:00,
2013-06-27 11:07:00,81.3,76.5,29.38,SW,225,0.0,0.7,82,0.00,,,0.18,fowsr,2013-06-27 15:07:00,
2013-06-27 11:12:00,81.7,77.1,29.38,SE,135,1.6,2.2,83,0.00,,,0.18,fowsr,2013-06-27 15:12:00,
2013-06-27 11:17:00,82.0,77.5,29.38,SE,135,3.1,3.8,83,0.00,,,0.18,fowsr,2013-06-27 15:17:00,
2013-06-27 11:22:00,82.0,76.9,29.38,SW,225,0.0,1.6,81,0.00,,,0.18,fowsr,2013-06-27 15:22:00,
2013-06-27 11:27:00,81.9,76.4,29.38,East,90,0.0,0.7,80,0.00,,,0.18,fowsr,2013-06-27 15:27:00,
2013-06-27 11:32:00,81.9,76.7,29.38,East,90,0.0,1.6,81,0.00,,,0.18,fowsr,2013-06-27 15:32:00,
2013-06-27 11:37:00,81.9,76.7,29.38,East,90,0.0,1.6,81,0.00,,,0.18,fowsr,2013-06-27 15:37:00,
2013-06-27 11:42:00,81.7,76.5,29.38,SE,135,0.7,3.8,81,0.00,,,0.18,fowsr,2013-06-27 15:42:00,
2013-06-27 11:47:00,81.7,76.5,29.38,SE,135,1.6,3.1,81,0.00,,,0.18,fowsr,2013-06-27 15:47:00,
2013-06-27 11:52:00,82.0,77.2,29.38,East,90,0.7,1.6,82,0.00,,,0.18,fowsr,2013-06-27 15:52:00,
2013-06-27 11:57:00,82.2,77.1,29.38,SE,135,0.0,0.7,81,0.00,,,0.18,fowsr,2013-06-27 15:57:00,
2013-06-27 12:02:00,82.8,77.6,29.39,SE,135,0.7,5.4,81,0.00,,,0.18,fowsr,2013-06-27 16:02:00,
2013-06-27 12:07:00,83.1,77.3,29.38,SE,135,0.0,0.7,79,0.00,,,0.18,fowsr,2013-06-27 16:07:00,
2013-06-27 12:12:00,83.1,77.3,29.38,East,90,0.0,0.0,79,0.00,,,0.18,fowsr,2013-06-27 16:12:00,
2013-06-27 12:17:00,82.9,77.1,29.38,SE,135,0.0,0.7,79,0.00,,,0.18,fowsr,2013-06-27 16:17:00,
2013-06-27 12:22:00,82.8,76.7,29.39,South,180,0.0,1.6,78,0.00,,,0.18,fowsr,2013-06-27 16:22:00,
2013-06-27 12:27:00,82.6,76.5,29.39,SE,135,0.0,1.6,78,0.00,,,0.18,fowsr,2013-06-27 16:27:00,
2013-06-27 12:32:00,82.4,76.3,29.39,SE,135,0.7,3.1,78,0.00,,,0.18,fowsr,2013-06-27 16:32:00,
2013-06-27 12:37:00,82.4,76.3,29.39,SE,135,0.7,3.1,78,0.00,,,0.18,fowsr,2013-06-27 16:37:00,
2013-06-27 12:42:00,82.0,76.3,29.38,NE,45,1.6,3.1,79,0.00,,,0.18,fowsr,2013-06-27 16:42:00,
2013-06-27 12:47:00,82.0,76.3,29.38,SE,135,0.7,2.2,79,0.00,,,0.18,fowsr,2013-06-27 16:47:00,
2013-06-27 12:52:00,82.2,76.4,29.38,SE,135,0.0,1.6,79,0.00,,,0.18,fowsr,2013-06-27 16:52:00,
2013-06-27 12:57:00,82.4,76.6,29.38,NW,315,0.0,0.7,79,0.00,,,0.18,fowsr,2013-06-27 16:57:00,
2013-06-27 13:02:00,82.6,77.1,29.38,East,90,0.0,0.7,80,0.00,,,0.18,fowsr,2013-06-27 17:02:00,
2013-06-27 13:07:00,83.1,77.6,29.36,NW,315,0.0,0.7,80,0.00,,,0.18,fowsr,2013-06-27 17:07:00,
2013-06-27 13:12:00,83.7,77.8,29.37,East,90,1.6,3.1,79,0.00,,,0.18,fowsr,2013-06-27 17:12:00,
2013-06-27 13:17:00,84.4,77.6,29.37,SE,135,0.7,2.2,76,0.00,,,0.18,fowsr,2013-06-27 17:17:00,
2013-06-27 13:22:00,84.7,77.6,29.37,SE,135,2.2,4.5,75,0.00,,,0.18,fowsr,2013-06-27 17:22:00,
2013-06-27 13:27:00,85.1,78.0,29.36,East,90,3.8,6.9,75,0.00,,,0.18,fowsr,2013-06-27 17:27:00,
2013-06-27 13:32:00,85.5,78.0,29.36,East,90,0.0,0.7,74,0.00,,,0.18,fowsr,2013-06-27 17:32:00,
2013-06-27 13:37:00,85.8,77.7,29.37,SE,135,1.6,3.8,72,0.00,,,0.18,fowsr,2013-06-27 17:37:00,
2013-06-27 13:42:00,85.8,75.6,29.36,SE,135,2.2,3.8,66,0.00,,,0.18,fowsr,2013-06-27 17:42:00,
2013-06-27 13:47:00,85.8,76.3,29.36,East,90,0.0,0.7,68,0.00,,,0.18,fowsr,2013-06-27 17:47:00,
2013-06-27 13:52:00,86.0,76.1,29.36,East,90,0.0,0.7,67,0.00,,,0.18,fowsr,2013-06-27 17:52:00,
2013-06-27 13:57:00,86.2,76.3,29.35,East,90,0.7,3.1,67,0.00,,,0.18,fowsr,2013-06-27 17:57:00,
2013-06-27 14:02:00,86.4,76.4,29.35,SE,135,2.2,3.8,67,0.00,,,0.18,fowsr,2013-06-27 18:02:00,
2013-06-27 14:07:00,86.4,76.4,29.35,SE,135,2.2,3.8,67,0.00,,,0.18,fowsr,2013-06-27 18:07:00,
2013-06-27 14:12:00,86.7,76.4,29.34,SE,135,1.6,3.8,66,0.00,,,0.18,fowsr,2013-06-27 18:12:00,
2013-06-27 14:17:00,86.9,76.9,29.34,East,90,0.0,0.7,67,0.00,,,0.18,fowsr,2013-06-27 18:17:00,
2013-06-27 14:22:00,87.3,76.9,29.33,SE,135,0.0,0.7,66,0.00,,,0.18,fowsr,2013-06-27 18:22:00,
2013-06-27 14:27:00,87.4,77.4,29.33,East,90,0.0,0.7,67,0.00,,,0.18,fowsr,2013-06-27 18:27:00,
2013-06-27 14:32:00,87.8,77.0,29.33,East,90,0.7,1.6,65,0.00,,,0.18,fowsr,2013-06-27 18:32:00,
2013-06-27 14:37:00,87.8,77.0,29.33,SW,225,1.6,4.5,65,0.00,,,0.18,fowsr,2013-06-27 18:37:00,
2013-06-27 14:42:00,87.8,77.4,29.33,SE,135,0.0,0.0,66,0.00,,,0.18,fowsr,2013-06-27 18:42:00,
2013-06-27 14:47:00,87.8,78.5,29.33,SE,135,0.0,1.6,69,0.00,,,0.18,fowsr,2013-06-27 18:47:00,
2013-06-27 14:52:00,87.8,77.4,29.32,East,90,0.7,1.6,66,0.00,,,0.18,fowsr,2013-06-27 18:52:00,
2013-06-27 14:57:00,87.8,77.4,29.32,South,180,1.6,3.8,66,0.00,,,0.18,fowsr,2013-06-27 18:57:00,
2013-06-27 15:02:00,88.0,76.8,29.31,East,90,0.0,1.6,64,0.00,,,0.18,fowsr,2013-06-27 19:02:00,
2013-06-27 15:07:00,88.3,77.2,29.31,NW,315,0.0,0.0,64,0.00,,,0.18,fowsr,2013-06-27 19:07:00,
2013-06-27 15:12:00,88.2,77.4,29.31,SE,135,0.7,3.1,65,0.00,,,0.18,fowsr,2013-06-27 19:12:00,
2013-06-27 15:17:00,88.2,77.8,29.31,East,90,0.0,0.7,66,0.00,,,0.18,fowsr,2013-06-27 19:17:00,
2013-06-27 15:22:00,88.0,77.6,29.31,SSE,157,2.2,4.5,66,0.00,,,0.18,fowsr,2013-06-27 19:22:00,
2013-06-27 15:27:00,88.0,77.2,29.31,SE,135,0.7,3.1,65,0.00,,,0.18,fowsr,2013-06-27 19:27:00,
2013-06-27 15:32:00,88.0,77.2,29.31,SE,135,0.7,1.6,65,0.00,,,0.18,fowsr,2013-06-27 19:32:00,
2013-06-27 15:37:00,88.2,78.1,29.30,East,90,0.0,0.0,67,0.00,,,0.18,fowsr,2013-06-27 19:37:00,
2013-06-27 15:42:00,88.5,78.8,29.29,SE,135,0.0,0.7,68,0.00,,,0.18,fowsr,2013-06-27 19:42:00,
2013-06-27 15:47:00,88.9,78.1,29.29,SE,135,0.0,1.6,65,0.00,,,0.18,fowsr,2013-06-27 19:47:00,
2013-06-27 15:52:00,88.9,78.8,29.29,SW,225,0.0,0.7,67,0.00,,,0.18,fowsr,2013-06-27 19:52:00,
2013-06-27 15:57:00,88.9,77.3,29.29,NW,315,0.0,0.7,63,0.00,,,0.18,fowsr,2013-06-27 19:57:00,
2013-06-27 16:02:00,88.9,78.1,29.29,NW,315,0.0,0.7,65,0.00,,,0.18,fowsr,2013-06-27 20:02:00,
2013-06-27 16:07:00,89.1,79.3,29.28,NW,315,0.0,1.6,68,0.00,,,0.18,fowsr,2013-06-27 20:07:00,
2013-06-27 16:12:00,89.1,78.2,29.28,SE,135,0.7,2.2,65,0.00,,,0.18,fowsr,2013-06-27 20:12:00,
2013-06-27 16:17:00,89.2,78.0,29.28,SE,135,0.0,0.0,64,0.00,,,0.18,fowsr,2013-06-27 20:17:00,
2013-06-27 16:27:00,88.9,77.3,29.28,South,180,0.7,3.8,63,0.00,,,0.18,fowsr,2013-06-27 20:27:00,
2013-06-27 16:32:00,88.7,77.1,29.28,East,90,0.7,1.6,63,0.00,,,0.18,fowsr,2013-06-27 20:32:00,
2013-06-27 16:37:00,88.7,77.1,29.28,SE,135,0.0,0.7,63,0.00,,,0.18,fowsr,2013-06-27 20:37:00,
2013-06-27 16:42:00,88.7,77.9,29.27,South,180,0.0,0.0,65,0.00,,,0.18,fowsr,2013-06-27 20:42:00,
2013-06-27 16:47:00,88.7,77.5,29.27,East,90,0.0,0.0,64,0.00,,,0.18,fowsr,2013-06-27 20:47:00,
2013-06-27 16:52:00,88.7,77.1,29.28,SE,135,0.0,2.2,63,0.00,,,0.18,fowsr,2013-06-27 20:52:00,
2013-06-27 17:02:00,88.7,77.1,29.28,NE,45,1.6,2.2,63,0.00,,,0.18,fowsr,2013-06-27 21:02:00,
2013-06-27 17:07:00,88.7,77.1,29.28,West,270,0.7,2.2,63,0.00,,,0.18,fowsr,2013-06-27 21:07:00,
2013-06-27 17:12:00,88.3,76.8,29.28,NW,315,0.0,0.0,63,0.00,,,0.18,fowsr,2013-06-27 21:12:00,
2013-06-27 17:17:00,88.0,76.8,29.27,NE,45,0.0,3.1,64,0.00,,,0.18,fowsr,2013-06-27 21:17:00,
2013-06-27 17:22:00,87.6,76.9,29.27,SE,135,0.0,0.0,65,0.00,,,0.18,fowsr,2013-06-27 21:22:00,
2013-06-27 17:27:00,87.3,76.9,29.27,SE,135,0.7,3.1,66,0.00,,,0.18,fowsr,2013-06-27 21:27:00,
2013-06-27 17:37:00,86.7,76.8,29.28,SE,135,0.7,1.6,67,0.00,,,0.18,fowsr,2013-06-27 21:37:00,
2013-06-27 17:42:00,86.9,77.3,29.28,West,270,0.0,1.6,68,0.00,,,0.18,fowsr,2013-06-27 21:42:00,
2013-06-27 17:47:00,86.9,77.3,29.28,SW,225,0.0,0.0,68,0.00,,,0.18,fowsr,2013-06-27 21:47:00,
2013-06-27 17:52:00,86.7,76.8,29.28,SE,135,0.0,0.7,67,0.00,,,0.18,fowsr,2013-06-27 21:52:00,
2013-06-27 18:02:00,86.9,76.6,29.28,NE,45,0.0,0.7,66,0.00,,,0.18,fowsr,2013-06-27 22:02:00,
2013-06-27 18:07:00,86.7,76.8,29.28,NE,45,0.0,0.7,67,0.00,,,0.18,fowsr,2013-06-27 22:07:00,
2013-06-27 18:12:00,86.5,77.3,29.28,SE,135,0.0,0.7,69,0.00,,,0.18,fowsr,2013-06-27 22:12:00,
2013-06-27 18:22:00,86.7,77.8,29.27,West,270,0.0,1.6,70,0.00,,,0.18,fowsr,2013-06-27 22:22:00,
2013-06-27 18:27:00,86.7,77.5,29.27,SE,135,0.0,1.6,69,0.00,,,0.18,fowsr,2013-06-27 22:27:00,
2013-06-27 18:37:00,86.7,77.5,29.27,East,90,0.0,1.6,69,0.00,,,0.18,fowsr,2013-06-27 22:37:00,
2013-06-27 18:42:00,86.5,76.2,29.26,South,180,0.0,0.0,66,0.00,,,0.18,fowsr,2013-06-27 22:42:00,
2013-06-27 18:47:00,86.4,75.7,29.27,SE,135,0.7,3.1,65,0.00,,,0.18,fowsr,2013-06-27 22:47:00,
2013-06-27 18:57:00,86.0,75.4,29.28,SE,135,0.7,1.6,65,0.00,,,0.18,fowsr,2013-06-27 22:57:00,
2013-06-27 19:02:00,85.8,77.0,29.28,SE,135,2.2,3.8,70,0.00,,,0.18,fowsr,2013-06-27 23:02:00,
2013-06-27 19:12:00,84.7,76.6,29.28,SE,135,0.0,0.7,72,0.00,,,0.18,fowsr,2013-06-27 23:12:00,
2013-06-27 19:17:00,84.7,76.6,29.29,SE,135,0.0,1.6,72,0.00,,,0.18,fowsr,2013-06-27 23:17:00,
2013-06-27 19:27:00,84.0,76.6,29.29,SE,135,0.0,1.6,74,0.00,,,0.08,fowsr,2013-06-27 23:27:00,
2013-06-27 19:32:00,83.7,76.3,29.29,East,90,0.7,1.6,74,0.00,,,0.07,fowsr,2013-06-27 23:32:00,
2013-06-27 19:37:00,83.5,76.1,29.29,SE,135,0.7,2.2,74,0.00,,,0.07,fowsr,2013-06-27 23:37:00,
2013-06-27 19:42:00,83.1,75.7,29.29,SE,135,1.6,2.2,74,0.00,,,0.06,fowsr,2013-06-27 23:42:00,
2013-06-27 19:52:00,82.8,75.7,29.29,SE,135,0.7,1.6,75,0.00,,,0.06,fowsr,2013-06-27 23:52:00,
2013-06-27 19:58:00,82.4,75.4,29.28,East,90,0.7,1.6,75,0.00,,,0.06,fowsr,2013-06-27 23:58:00,
2013-06-27 20:07:00,82.0,76.0,29.29,SE,135,0.0,1.6,78,0.00,,,0.06,fowsr,2013-06-28 00:07:00,
2013-06-27 20:12:00,81.7,75.6,29.29,SE,135,1.6,2.2,78,0.00,,,0.06,fowsr,2013-06-28 00:12:00,
2013-06-27 20:17:00,81.5,75.5,29.29,East,90,0.0,1.6,78,0.00,,,0.06,fowsr,2013-06-28 00:17:00,
2013-06-27 20:27:00,81.0,75.2,29.30,SE,135,0.0,1.6,79,0.00,,,0.06,fowsr,2013-06-28 00:27:00,
2013-06-27 20:32:00,80.8,75.1,29.29,East,90,0.0,1.6,79,0.00,,,0.05,fowsr,2013-06-28 00:32:00,
2013-06-27 20:37:00,80.4,75.0,29.29,South,180,0.0,0.7,80,0.00,,,0.04,fowsr,2013-06-28 00:37:00,
2013-06-27 20:42:00,80.2,74.8,29.29,SE,135,0.7,2.2,80,0.00,,,0.04,fowsr,2013-06-28 00:42:00,
2013-06-27 20:47:00,80.2,74.8,29.29,SE,135,0.0,0.0,80,0.00,,,0.02,fowsr,2013-06-28 00:47:00,
2013-06-27 20:52:00,80.1,74.7,29.29,SE,135,0.7,2.2,80,0.00,,,0.02,fowsr,2013-06-28 00:52:00,
2013-06-27 21:02:00,79.7,74.3,29.30,SE,135,1.6,3.1,80,0.00,,,0.01,fowsr,2013-06-28 01:02:00,
2013-06-27 21:07:00,79.5,74.1,29.29,SE,135,0.7,2.2,80,0.00,,,0.01,fowsr,2013-06-28 01:07:00,
2013-06-27 21:17:00,79.2,74.1,29.29,SE,135,1.6,3.1,81,0.00,,,0.01,fowsr,2013-06-28 01:17:00,
2013-06-27 21:22:00,79.0,73.9,29.29,East,90,0.0,0.7,81,0.00,,,0.01,fowsr,2013-06-28 01:22:00,
2013-06-27 21:27:00,79.0,73.9,29.30,SE,135,0.7,3.1,81,0.00,,,0.01,fowsr,2013-06-28 01:27:00,
2013-06-27 21:37:00,78.6,74.1,29.30,East,90,0.0,0.0,83,0.00,,,0.01,fowsr,2013-06-28 01:37:00,
2013-06-27 21:42:00,78.6,74.1,29.30,SE,135,0.0,0.7,83,0.00,,,0.01,fowsr,2013-06-28 01:42:00,
2013-06-27 21:47:00,78.4,74.0,29.31,East,90,0.0,1.6,83,0.00,,,0.01,fowsr,2013-06-28 01:47:00,
2013-06-27 21:52:00,78.4,74.0,29.31,SE,135,0.0,1.6,83,0.00,,,0.01,fowsr,2013-06-28 01:52:00,
2013-06-27 21:57:00,78.3,74.1,29.31,SE,135,0.7,1.6,84,0.00,,,0.01,fowsr,2013-06-28 01:57:00,
2013-06-27 22:02:00,78.3,74.1,29.30,SE,135,0.0,0.0,84,0.00,,,0.01,fowsr,2013-06-28 02:02:00,
2013-06-27 22:07:00,78.1,73.9,29.31,East,90,0.0,0.7,84,0.00,,,0.01,fowsr,2013-06-28 02:07:00,
2013-06-27 22:12:00,78.1,73.9,29.31,SE,135,0.0,1.6,84,0.00,,,0.01,fowsr,2013-06-28 02:12:00,
2013-06-27 22:17:00,78.1,73.9,29.31,East,90,0.0,0.7,84,0.00,,,0.01,fowsr,2013-06-28 02:17:00,
2013-06-27 22:27:00,77.9,74.0,29.30,East,90,0.0,0.0,85,0.00,,,0.01,fowsr,2013-06-28 02:27:00,
2013-06-27 22:32:00,77.7,73.8,29.30,East,90,0.0,0.0,85,0.00,,,0.01,fowsr,2013-06-28 02:32:00,
2013-06-27 22:37:00,77.7,73.8,29.29,SE,135,0.0,0.0,85,0.00,,,0.01,fowsr,2013-06-28 02:37:00,
2013-06-27 22:42:00,77.5,73.7,29.28,SE,135,0.0,0.0,85,0.00,,,0.01,fowsr,2013-06-28 02:42:00,
2013-06-27 22:52:00,77.4,73.8,29.29,East,90,0.0,0.7,86,0.00,,,0.01,fowsr,2013-06-28 02:52:00,
2013-06-27 22:57:00,77.2,73.6,29.30,SE,135,0.7,2.2,86,0.00,,,0.01,fowsr,2013-06-28 02:57:00,
2013-06-27 23:02:00,77.0,73.7,29.31,SE,135,0.0,0.0,87,0.00,,,0.01,fowsr,2013-06-28 03:02:00,
2013-06-27 23:07:00,77.0,73.7,29.31,SE,135,0.0,0.0,87,0.00,,,0.01,fowsr,2013-06-28 03:07:00,
2013-06-27 23:12:00,76.6,73.6,29.31,SE,135,0.0,0.0,88,0.00,,,0.01,fowsr,2013-06-28 03:12:00,
2013-06-27 23:17:00,76.6,73.9,29.31,SE,135,0.0,0.7,89,0.00,,,0.01,fowsr,2013-06-28 03:17:00,
2013-06-27 23:22:00,76.6,73.9,29.31,SE,135,0.0,0.0,89,0.00,,,0.01,fowsr,2013-06-28 03:22:00,
2013-06-27 23:27:00,76.6,73.9,29.31,SE,135,0.0,0.0,89,0.00,,,0.01,fowsr,2013-06-28 03:27:00,
2013-06-27 23:37:00,76.3,73.5,29.31,SE,135,0.0,0.7,89,0.00,,,0.01,fowsr,2013-06-28 03:37:00,
2013-06-27 23:42:00,76.3,73.8,29.31,East,90,0.0,0.0,90,0.00,,,0.01,fowsr,2013-06-28 03:42:00,
2013-06-27 23:47:00,76.3,73.8,29.30,East,90,0.0,0.0,90,0.00,,,0.01,fowsr,2013-06-28 03:47:00,
2013-06-27 23:52:00,76.3,73.8,29.31,East,90,0.0,0.0,90,0.00,,,0.01,fowsr,2013-06-28 03:52:00,
2013-06-27 23:57:00,76.3,73.8,29.30,East,90,0.0,0.7,90,0.00,,,0.01,fowsr,2013-06-28 03:57:00,